Time;durP1;ratioP1;P1;durP2;ratioP2;P2;SDS_P1;SDS_P2;PMS_P1;PMS_P2;Temp;Humidity;BMP_temperature;BMP_pressure;BME280_temperature;BME280_humidity;BME280_pressure;Samples;Min_cycle;Max_cycle;Signal;HPM_P1;HPM_P2
2022/01/06 00:00:23;;;;;;;12.13;4.40;;;;;;;;;;4940272;28;20045;-84
2022/01/06 00:06:12;;;;;;;22.48;6.45;;;;;;;;;;5443241;22;20055;-83
2022/01/06 00:37:01;;;;;;;;;;;;;;;;;;;;;
2022/01/06 00:42:33;;;;;;;20.95;5.50;;;;;;;;;;5056961;23;20085;-84
2022/01/06 00:45:40;;;;;;;;;;;;;;;;;;;;;
2022/01/06 00:48:36;;;;;;;16.95;5.25;;;;;;;;;;4979218;28;20126;-85
2022/01/06 00:54:12;;;;;;;18.20;5.55;;;;;;;;;;4993857;28;20122;-84
2022/01/06 00:57:14;;;;;;;15.20;5.22;;;;;;;;;;4922709;29;20036;-84
2022/01/06 01:03:16;;;;;;;14.82;4.90;;;;;;;;;;4830698;29;20049;-84
2022/01/06 01:08:50;;;;;;;16.27;5.03;;;;;;;;;;4812099;29;20037;-83
2022/01/06 01:11:41;;;;;;;17.40;5.60;;;;;;;;;;4811904;29;20125;-83
2022/01/06 01:18:03;;;;;;;;;;;;;;;;;;;;;
2022/01/06 01:20:30;;;;;;;13.15;5.25;;;;;;;;;;4855666;29;20488;-84
2022/01/06 01:26:23;;;;;;;22.75;5.85;;;;;;;;;;4919673;29;20039;-84
2022/01/06 01:35:32;;;;;;;15.55;5.85;;;;;;;;;;4998076;28;20045;-82
2022/01/06 01:38:01;;;;;;;17.05;4.88;;;;;;;;;;4992205;28;20065;-82
2022/01/06 01:43:03;;;;;;;19.52;4.88;;;;;;;;;;6086395;22;20095;-84
2022/01/06 01:48:43;;;;;;;13.68;4.93;;;;;;;;;;4975815;28;20041;-83
2022/01/06 01:51:09;;;;;;;14.82;5.03;;;;;;;;;;4994359;28;20387;-83
2022/01/06 01:54:30;;;;;;;;;;;;;;;;;;;;;
2022/01/06 01:57:17;;;;;;;17.90;4.57;;;;;;;;;;4966518;28;20027;-84
2022/01/06 01:59:44;;;;;;;18.27;5.40;;;;;;;;;;4981213;28;20027;-84
2022/01/06 02:02:10;;;;;;;12.23;5.13;;;;;;;;;;4970938;28;20023;-84
2022/01/06 02:04:36;;;;;;;17.50;4.50;;;;;;;;;;4975576;28;20034;-84
2022/01/06 02:07:03;;;;;;;16.50;5.60;;;;;;;;;;4975124;28;20491;-84
2022/01/06 02:09:29;;;;;;;19.00;5.47;;;;;;;;;;4975379;28;20019;-84
2022/01/06 02:11:55;;;;;;;20.42;4.57;;;;;;;;;;4975342;28;20454;-84
2022/01/06 02:14:25;;;;;;;13.60;4.90;;;;;;;;;;4980818;28;20035;-85
2022/01/06 02:16:54;;;;;;;14.63;5.72;;;;;;;;;;4977657;28;20027;-85
2022/01/06 02:19:20;;;;;;;10.00;4.65;;;;;;;;;;4981930;28;20035;-85
2022/01/06 02:21:46;;;;;;;16.45;4.97;;;;;;;;;;4983274;28;20023;-84
2022/01/06 02:24:12;;;;;;;14.23;4.50;;;;;;;;;;4977762;28;20058;-83
2022/01/06 02:26:38;;;;;;;14.75;4.90;;;;;;;;;;4973882;28;20043;-84
2022/01/06 02:29:04;;;;;;;18.17;5.57;;;;;;;;;;4976205;28;20037;-83
2022/01/06 02:31:39;;;;;;;7.68;4.10;;;;;;;;;;4977324;28;20023;-83
2022/01/06 02:34:05;;;;;;;12.88;5.35;;;;;;;;;;4979562;28;20030;-83
2022/01/06 02:36:31;;;;;;;10.35;4.93;;;;;;;;;;4982130;28;20030;-84
2022/01/06 02:38:57;;;;;;;16.20;5.68;;;;;;;;;;4980864;28;20033;-83
2022/01/06 02:41:23;;;;;;;15.93;5.63;;;;;;;;;;4982492;28;20042;-85
2022/01/06 02:43:50;;;;;;;18.15;5.15;;;;;;;;;;4981872;28;20506;-84
2022/01/06 02:46:16;;;;;;;13.23;4.88;;;;;;;;;;4980388;28;20035;-84
2022/01/06 02:48:42;;;;;;;12.60;4.68;;;;;;;;;;4979495;28;20030;-84
2022/01/06 02:51:08;;;;;;;24.50;4.95;;;;;;;;;;4977864;28;20027;-84
2022/01/06 02:53:34;;;;;;;13.00;5.32;;;;;;;;;;4986918;28;20035;-84
2022/01/06 02:56:00;;;;;;;19.60;5.40;;;;;;;;;;4995074;28;20015;-84
2022/01/06 02:58:26;;;;;;;13.82;5.05;;;;;;;;;;4990038;28;20054;-84
2022/01/06 03:00:52;;;;;;;16.38;5.22;;;;;;;;;;4983911;28;20054;-84
2022/01/06 03:03:19;;;;;;;16.95;5.63;;;;;;;;;;4988509;28;20030;-84
2022/01/06 03:05:44;;;;;;;17.95;5.55;;;;;;;;;;4979382;28;20070;-84
2022/01/06 03:08:11;;;;;;;25.17;6.28;;;;;;;;;;4980553;28;20490;-84
2022/01/06 03:10:41;;;;;;;16.67;5.43;;;;;;;;;;4978636;28;20161;-84
2022/01/06 03:13:07;;;;;;;10.70;4.57;;;;;;;;;;4978670;28;20176;-84
2022/01/06 03:15:33;;;;;;;12.77;5.35;;;;;;;;;;4978133;28;20035;-84
2022/01/06 03:17:59;;;;;;;14.18;6.35;;;;;;;;;;4982161;28;20031;-84
2022/01/06 03:20:27;;;;;;;19.90;5.82;;;;;;;;;;4985354;28;20043;-85
2022/01/06 03:22:53;;;;;;;14.25;4.93;;;;;;;;;;4988801;28;20031;-84
2022/01/06 03:25:19;;;;;;;15.43;4.72;;;;;;;;;;4983879;28;20066;-84
2022/01/06 03:27:47;;;;;;;13.73;5.15;;;;;;;;;;4982778;28;20026;-84
2022/01/06 03:30:18;;;;;;;11.45;4.93;;;;;;;;;;4986208;28;20134;-84
2022/01/06 03:32:44;;;;;;;12.80;5.15;;;;;;;;;;4983928;28;20482;-85
2022/01/06 03:35:12;;;;;;;16.20;5.70;;;;;;;;;;4988293;28;20079;-84
2022/01/06 03:37:38;;;;;;;20.25;5.28;;;;;;;;;;4982299;28;20046;-84
2022/01/06 03:40:05;;;;;;;17.80;6.00;;;;;;;;;;4981159;28;20031;-84
2022/01/06 03:42:35;;;;;;;19.05;5.63;;;;;;;;;;4980327;28;20118;-84
2022/01/06 03:45:01;;;;;;;13.02;5.18;;;;;;;;;;4979335;28;20038;-85
2022/01/06 03:47:27;;;;;;;22.95;5.85;;;;;;;;;;4984740;28;20031;-84
2022/01/06 03:49:53;;;;;;;19.63;6.28;;;;;;;;;;4983909;28;20027;-84
2022/01/06 03:52:19;;;;;;;17.77;6.13;;;;;;;;;;4984861;28;20053;-84
2022/01/06 03:54:45;;;;;;;12.00;4.88;;;;;;;;;;4987491;28;20518;-84
2022/01/06 03:57:11;;;;;;;17.23;5.70;;;;;;;;;;4982725;28;20126;-84
2022/01/06 03:59:37;;;;;;;17.35;5.85;;;;;;;;;;4980644;28;20030;-84
2022/01/06 04:02:04;;;;;;;11.10;4.97;;;;;;;;;;4981496;28;20371;-84
2022/01/06 04:04:30;;;;;;;18.70;5.55;;;;;;;;;;4983229;28;20030;-84
2022/01/06 04:06:56;;;;;;;17.73;6.15;;;;;;;;;;4982005;28;20031;-83
2022/01/06 04:09:22;;;;;;;15.98;5.47;;;;;;;;;;4982892;28;20073;-83
2022/01/06 04:11:48;;;;;;;12.88;5.10;;;;;;;;;;4982693;28;20015;-84
2022/01/06 04:14:15;;;;;;;12.13;5.55;;;;;;;;;;4999807;28;20082;-84
2022/01/06 04:16:41;;;;;;;17.17;5.30;;;;;;;;;;4999600;28;20057;-84
2022/01/06 04:19:07;;;;;;;9.90;4.93;;;;;;;;;;4981378;28;20043;-83
2022/01/06 04:21:33;;;;;;;23.58;5.80;;;;;;;;;;4982285;28;20023;-84
2022/01/06 04:23:59;;;;;;;15.52;6.10;;;;;;;;;;4982013;28;20614;-84
2022/01/06 04:26:26;;;;;;;23.05;6.80;;;;;;;;;;4981447;28;20031;-84
2022/01/06 04:28:52;;;;;;;16.58;5.47;;;;;;;;;;4980777;28;20027;-84
2022/01/06 04:31:18;;;;;;;21.17;6.65;;;;;;;;;;4983330;28;20023;-84
2022/01/06 04:33:44;;;;;;;22.73;6.57;;;;;;;;;;4985656;28;20062;-85
2022/01/06 04:36:10;;;;;;;20.38;7.00;;;;;;;;;;4984495;28;20031;-84
2022/01/06 04:38:36;;;;;;;14.90;6.10;;;;;;;;;;4980196;28;20053;-84
2022/01/06 04:41:03;;;;;;;22.42;6.90;;;;;;;;;;4980454;28;20031;-83
2022/01/06 04:43:29;;;;;;;20.33;6.55;;;;;;;;;;4972124;28;20062;-84
2022/01/06 04:45:55;;;;;;;18.45;6.97;;;;;;;;;;4984479;28;20054;-84
2022/01/06 04:48:21;;;;;;;16.90;6.05;;;;;;;;;;4981097;28;20129;-85
2022/01/06 04:50:47;;;;;;;21.55;6.75;;;;;;;;;;4982269;28;20023;-84
2022/01/06 04:53:13;;;;;;;18.83;7.20;;;;;;;;;;4980766;28;20027;-84
2022/01/06 04:55:39;;;;;;;21.92;6.82;;;;;;;;;;4979170;28;20062;-84
2022/01/06 04:58:05;;;;;;;21.50;7.00;;;;;;;;;;4979964;28;20034;-84
2022/01/06 05:00:31;;;;;;;11.80;5.85;;;;;;;;;;4979213;28;20061;-84
2022/01/06 05:02:57;;;;;;;14.18;6.35;;;;;;;;;;4982248;28;20039;-85
2022/01/06 05:05:23;;;;;;;19.60;6.60;;;;;;;;;;4982634;28;20085;-85
2022/01/06 05:07:49;;;;;;;21.63;7.72;;;;;;;;;;4980238;28;20511;-84
2022/01/06 05:10:15;;;;;;;21.55;7.03;;;;;;;;;;4970431;28;20029;-84
2022/01/06 05:12:43;;;;;;;23.25;6.97;;;;;;;;;;4982310;28;20106;-84
2022/01/06 05:15:09;;;;;;;22.17;7.32;;;;;;;;;;4980477;28;20030;-84
2022/01/06 05:17:35;;;;;;;17.60;7.07;;;;;;;;;;4980093;28;20030;-84
2022/01/06 05:20:02;;;;;;;19.02;6.75;;;;;;;;;;4977368;28;20077;-84
2022/01/06 05:22:29;;;;;;;19.80;6.43;;;;;;;;;;4977025;28;20023;-84
2022/01/06 05:27:22;;;;;;;20.30;7.50;;;;;;;;;;5002639;23;20048;-82
2022/01/06 05:29:48;;;;;;;27.83;7.50;;;;;;;;;;4979244;28;20035;-82
2022/01/06 05:32:14;;;;;;;19.95;7.63;;;;;;;;;;4978890;28;20023;-82
2022/01/06 05:34:40;;;;;;;17.88;6.90;;;;;;;;;;4971184;28;20059;-82
2022/01/06 05:37:06;;;;;;;22.10;6.80;;;;;;;;;;4989201;28;20031;-82
2022/01/06 05:39:32;;;;;;;16.77;6.13;;;;;;;;;;4979284;28;20102;-81
2022/01/06 05:41:58;;;;;;;24.38;7.85;;;;;;;;;;4979540;28;20029;-82
2022/01/06 05:44:25;;;;;;;26.17;6.95;;;;;;;;;;4978077;28;20027;-81
2022/01/06 05:46:51;;;;;;;27.13;8.48;;;;;;;;;;4979887;28;20058;-82
2022/01/06 05:49:17;;;;;;;20.05;6.97;;;;;;;;;;4978356;28;20118;-81
2022/01/06 05:51:44;;;;;;;21.40;6.97;;;;;;;;;;4980311;28;20034;-82
2022/01/06 05:54:10;;;;;;;23.83;7.10;;;;;;;;;;4978363;28;20094;-81
2022/01/06 05:56:36;;;;;;;25.08;8.05;;;;;;;;;;4978600;28;20114;-82
2022/01/06 05:59:02;;;;;;;26.17;7.43;;;;;;;;;;4979920;28;20061;-82
2022/01/06 06:01:28;;;;;;;17.42;7.75;;;;;;;;;;4979479;28;20105;-82
2022/01/06 06:03:55;;;;;;;22.02;8.15;;;;;;;;;;4978708;28;20185;-82
2022/01/06 06:06:21;;;;;;;21.98;7.88;;;;;;;;;;4979583;28;20046;-82
2022/01/06 06:08:46;;;;;;;19.98;7.55;;;;;;;;;;4980489;28;20105;-83
2022/01/06 06:11:12;;;;;;;18.80;6.95;;;;;;;;;;4979700;28;20483;-82
2022/01/06 06:13:38;;;;;;;18.67;7.82;;;;;;;;;;4981330;28;20061;-81
2022/01/06 06:16:05;;;;;;;19.42;7.70;;;;;;;;;;4978249;28;20058;-80
2022/01/06 06:18:31;;;;;;;25.13;8.10;;;;;;;;;;4978389;28;20077;-84
2022/01/06 06:20:57;;;;;;;26.00;8.00;;;;;;;;;;4980264;28;20078;-82
2022/01/06 06:23:23;;;;;;;24.65;8.63;;;;;;;;;;4979925;28;20034;-82
2022/01/06 06:25:49;;;;;;;21.08;7.68;;;;;;;;;;4980231;28;20037;-83
2022/01/06 06:28:15;;;;;;;21.20;8.27;;;;;;;;;;4979550;28;20031;-82
2022/01/06 06:30:41;;;;;;;14.43;7.30;;;;;;;;;;4982632;28;20062;-82
2022/01/06 06:33:07;;;;;;;19.65;8.00;;;;;;;;;;4980946;28;20031;-82
2022/01/06 06:35:33;;;;;;;19.90;7.13;;;;;;;;;;4980003;28;20535;-82
2022/01/06 06:37:59;;;;;;;34.63;10.35;;;;;;;;;;4979256;28;20039;-83
2022/01/06 06:40:25;;;;;;;19.85;7.82;;;;;;;;;;4980202;28;20023;-82
2022/01/06 06:42:51;;;;;;;24.08;7.32;;;;;;;;;;4977993;28;20508;-83
2022/01/06 06:45:19;;;;;;;14.95;7.20;;;;;;;;;;4979140;28;20035;-82
2022/01/06 06:47:45;;;;;;;22.15;7.45;;;;;;;;;;4980331;28;20023;-82
2022/01/06 06:50:13;;;;;;;26.13;7.85;;;;;;;;;;4978479;28;20057;-82
2022/01/06 06:52:39;;;;;;;18.92;7.95;;;;;;;;;;4979694;28;20014;-83
2022/01/06 06:55:05;;;;;;;15.45;6.72;;;;;;;;;;4980149;28;20061;-82
2022/01/06 06:57:31;;;;;;;25.58;7.88;;;;;;;;;;4981147;28;20026;-82
2022/01/06 06:59:57;;;;;;;25.17;8.20;;;;;;;;;;4978610;28;20023;-80
2022/01/06 07:02:23;;;;;;;19.60;8.68;;;;;;;;;;4961576;28;20078;-82
2022/01/06 07:04:49;;;;;;;26.77;7.88;;;;;;;;;;4961817;28;20035;-82
2022/01/06 07:07:15;;;;;;;16.98;7.35;;;;;;;;;;4978384;28;20039;-82
2022/01/06 07:09:41;;;;;;;26.60;8.98;;;;;;;;;;4978538;28;20078;-83
2022/01/06 07:12:07;;;;;;;21.58;6.90;;;;;;;;;;4980359;28;20046;-81
2022/01/06 07:14:33;;;;;;;18.08;7.85;;;;;;;;;;4979131;28;20099;-82
2022/01/06 07:16:59;;;;;;;24.92;8.30;;;;;;;;;;4979464;28;20062;-83
2022/01/06 07:19:25;;;;;;;23.20;8.48;;;;;;;;;;4980362;28;20027;-82
2022/01/06 07:21:51;;;;;;;22.20;8.60;;;;;;;;;;4977014;28;20209;-83
2022/01/06 07:24:18;;;;;;;32.50;8.98;;;;;;;;;;4966140;28;20507;-82
2022/01/06 07:26:44;;;;;;;32.47;8.13;;;;;;;;;;4970860;28;20676;-82
2022/01/06 07:29:10;;;;;;;28.05;9.18;;;;;;;;;;4984552;28;20039;-83
2022/01/06 07:31:36;;;;;;;22.92;8.23;;;;;;;;;;4979497;28;20023;-79
2022/01/06 07:34:02;;;;;;;25.17;7.78;;;;;;;;;;4977574;28;20034;-80
2022/01/06 07:36:28;;;;;;;38.90;9.73;;;;;;;;;;4978772;28;20031;-83
2022/01/06 07:38:54;;;;;;;25.48;8.27;;;;;;;;;;4980423;28;20035;-82
2022/01/06 07:41:20;;;;;;;19.67;7.13;;;;;;;;;;4983131;28;20399;-83
2022/01/06 07:43:47;;;;;;;26.60;7.63;;;;;;;;;;4982905;28;20034;-83
2022/01/06 07:46:13;;;;;;;21.13;7.60;;;;;;;;;;4981337;28;20027;-83
2022/01/06 07:48:55;;;;;;;22.60;7.65;;;;;;;;;;4982705;28;20037;-83
2022/01/06 07:51:21;;;;;;;22.95;8.18;;;;;;;;;;4979551;28;20061;-83
2022/01/06 07:53:47;;;;;;;19.90;7.85;;;;;;;;;;4980659;28;20019;-83
2022/01/06 07:56:13;;;;;;;25.90;8.32;;;;;;;;;;4979974;28;20054;-82
2022/01/06 07:58:39;;;;;;;24.98;8.18;;;;;;;;;;4980364;28;20034;-82
2022/01/06 08:01:05;;;;;;;19.52;8.10;;;;;;;;;;4979613;28;20506;-82
2022/01/06 08:03:31;;;;;;;25.13;9.05;;;;;;;;;;4979498;28;20046;-82
2022/01/06 08:05:57;;;;;;;28.23;8.07;;;;;;;;;;4977573;28;20126;-82
2022/01/06 08:08:23;;;;;;;16.98;7.85;;;;;;;;;;4979357;28;20019;-82
2022/01/06 08:10:49;;;;;;;27.40;7.90;;;;;;;;;;4977404;28;20094;-82
2022/01/06 08:13:15;;;;;;;21.10;7.97;;;;;;;;;;4982429;28;20042;-82
2022/01/06 08:15:41;;;;;;;20.42;7.95;;;;;;;;;;4982302;28;20054;-82
2022/01/06 08:18:07;;;;;;;25.40;7.78;;;;;;;;;;4984774;28;20034;-80
2022/01/06 08:20:35;;;;;;;23.45;7.55;;;;;;;;;;4988072;28;20030;-81
2022/01/06 08:23:01;;;;;;;16.52;6.38;;;;;;;;;;4974227;28;20097;-82
2022/01/06 08:25:27;;;;;;;19.55;6.13;;;;;;;;;;4973975;28;20043;-81
2022/01/06 08:27:53;;;;;;;13.30;4.88;;;;;;;;;;4983500;28;20094;-83
2022/01/06 08:30:19;;;;;;;20.95;5.95;;;;;;;;;;4983365;28;20245;-83
2022/01/06 08:32:45;;;;;;;17.88;5.88;;;;;;;;;;4986231;28;20027;-80
2022/01/06 08:35:11;;;;;;;15.50;5.60;;;;;;;;;;4989268;28;20359;-81
2022/01/06 08:37:37;;;;;;;18.67;4.55;;;;;;;;;;4984739;28;20093;-83
2022/01/06 08:40:04;;;;;;;13.82;4.45;;;;;;;;;;4980699;28;20034;-82
2022/01/06 08:42:30;;;;;;;17.55;5.00;;;;;;;;;;4982286;28;20030;-84
2022/01/06 08:44:56;;;;;;;18.02;4.70;;;;;;;;;;4981611;28;20035;-81
2022/01/06 08:47:22;;;;;;;14.25;4.60;;;;;;;;;;4981811;28;20034;-83
2022/01/06 08:49:49;;;;;;;9.82;3.63;;;;;;;;;;4982827;28;20813;-84
2022/01/06 08:52:15;;;;;;;16.27;4.25;;;;;;;;;;4980388;28;20027;-83
2022/01/06 08:54:41;;;;;;;16.30;4.22;;;;;;;;;;4981420;28;20030;-84
2022/01/06 08:57:07;;;;;;;10.88;3.75;;;;;;;;;;4982173;28;20030;-83
2022/01/06 08:59:33;;;;;;;14.30;4.68;;;;;;;;;;4980366;28;20054;-84
2022/01/06 09:01:59;;;;;;;16.10;5.22;;;;;;;;;;4976503;28;20050;-80
2022/01/06 09:04:25;;;;;;;20.27;5.63;;;;;;;;;;4961482;28;20023;-82
2022/01/06 09:06:51;;;;;;;18.38;6.00;;;;;;;;;;4983434;28;20368;-82
2022/01/06 09:09:18;;;;;;;17.90;5.25;;;;;;;;;;4979002;28;20453;-82
2022/01/06 09:11:44;;;;;;;14.23;5.25;;;;;;;;;;4980406;28;20081;-82
2022/01/06 09:14:11;;;;;;;16.63;5.50;;;;;;;;;;4980112;28;20027;-81
2022/01/06 09:16:37;;;;;;;14.73;5.97;;;;;;;;;;4979736;28;20515;-83
2022/01/06 09:19:03;;;;;;;15.93;5.20;;;;;;;;;;4979616;28;20030;-81
2022/01/06 09:21:29;;;;;;;14.05;5.70;;;;;;;;;;4979039;28;20506;-84
2022/01/06 09:23:57;;;;;;;24.13;5.65;;;;;;;;;;4979551;28;20034;-82
2022/01/06 09:26:23;;;;;;;16.38;5.63;;;;;;;;;;4980466;28;20038;-83
2022/01/06 09:28:49;;;;;;;28.83;7.15;;;;;;;;;;4980858;28;20026;-83
2022/01/06 09:31:15;;;;;;;12.95;5.07;;;;;;;;;;4978602;28;20027;-81
2022/01/06 09:33:41;;;;;;;26.08;6.63;;;;;;;;;;4979007;28;20082;-82
2022/01/06 09:36:07;;;;;;;12.77;5.30;;;;;;;;;;4972760;28;20082;-80
2022/01/06 09:38:33;;;;;;;22.90;6.68;;;;;;;;;;4977327;29;20031;-82
2022/01/06 09:41:03;;;;;;;12.50;5.30;;;;;;;;;;4975754;29;20030;-80
2022/01/06 09:43:30;;;;;;;18.38;7.38;;;;;;;;;;4975073;28;20038;-84
2022/01/06 09:46:00;;;;;;;24.10;7.07;;;;;;;;;;4966531;28;20066;-84
2022/01/06 09:48:26;;;;;;;22.02;6.60;;;;;;;;;;4963067;28;20042;-82
2022/01/06 09:50:52;;;;;;;27.17;7.70;;;;;;;;;;4979421;28;20039;-82
2022/01/06 09:53:21;;;;;;;18.65;6.57;;;;;;;;;;4976023;28;20027;-81
2022/01/06 09:55:47;;;;;;;17.83;5.82;;;;;;;;;;4968446;28;20063;-81
2022/01/06 09:58:21;;;;;;;20.42;6.25;;;;;;;;;;4956670;29;20034;-81
2022/01/06 10:00:47;;;;;;;20.52;7.22;;;;;;;;;;4966660;28;20483;-81
2022/01/06 10:03:13;;;;;;;23.65;8.38;;;;;;;;;;4975191;28;20065;-82
2022/01/06 10:05:46;;;;;;;22.40;6.85;;;;;;;;;;4978079;28;20027;-81
2022/01/06 10:08:13;;;;;;;23.02;7.78;;;;;;;;;;4974276;28;20051;-80
2022/01/06 10:10:40;;;;;;;23.13;7.50;;;;;;;;;;4957587;29;20501;-81
2022/01/06 10:13:08;;;;;;;17.75;7.20;;;;;;;;;;4959522;29;20408;-81
2022/01/06 10:15:38;;;;;;;30.00;6.95;;;;;;;;;;4962786;28;20046;-81
2022/01/06 10:18:14;;;;;;;10.80;5.73;;;;;;;;;;4976616;28;20038;-79
2022/01/06 10:20:41;;;;;;;14.48;5.68;;;;;;;;;;4976338;28;20038;-82
2022/01/06 10:23:12;;;;;;;18.75;5.88;;;;;;;;;;4963699;28;20031;-82
2022/01/06 10:25:38;;;;;;;;;;;;;;;;;;4965618;28;20050;-82
2022/01/06 10:28:13;;;;;;;16.27;6.13;;;;;;;;;;4977503;28;19906;-82
2022/01/06 10:30:47;;;;;;;17.67;6.03;;;;;;;;;;4978396;28;20019;-83
2022/01/06 10:33:14;;;;;;;12.73;5.63;;;;;;;;;;4977389;28;20019;-82
2022/01/06 10:35:40;;;;;;;11.20;4.85;;;;;;;;;;4987395;28;20027;-81
2022/01/06 10:38:06;;;;;;;16.63;5.80;;;;;;;;;;4979756;28;20130;-83
2022/01/06 10:40:32;;;;;;;15.52;5.72;;;;;;;;;;4979538;28;20042;-83
2022/01/06 10:42:58;;;;;;;16.75;5.95;;;;;;;;;;4977889;28;20034;-83
2022/01/06 10:45:26;;;;;;;14.57;5.18;;;;;;;;;;4978779;28;20023;-83
2022/01/06 10:47:52;;;;;;;15.05;4.88;;;;;;;;;;4978512;28;20825;-83
2022/01/06 10:50:22;;;;;;;16.75;5.00;;;;;;;;;;4979258;28;20061;-82
2022/01/06 10:52:48;;;;;;;19.30;5.60;;;;;;;;;;4979550;28;20030;-83
2022/01/06 10:55:16;;;;;;;13.73;4.70;;;;;;;;;;4983695;28;20034;-83
2022/01/06 10:57:51;;;;;;;20.40;5.82;;;;;;;;;;4985205;28;20030;-83
2022/01/06 11:00:18;;;;;;;15.80;4.82;;;;;;;;;;4975693;28;20546;-81
2022/01/06 11:02:44;;;;;;;16.45;4.55;;;;;;;;;;4966070;29;20091;-82
2022/01/06 11:05:10;;;;;;;17.52;4.72;;;;;;;;;;4966312;28;20054;-82
2022/01/06 11:07:36;;;;;;;11.95;4.13;;;;;;;;;;4964589;29;20059;-82
2022/01/06 11:10:13;;;;;;;15.00;4.05;;;;;;;;;;4958925;29;20134;-82
2022/01/06 11:12:39;;;;;;;20.58;4.55;;;;;;;;;;4960308;29;20020;-82
2022/01/06 11:15:05;;;;;;;15.07;3.85;;;;;;;;;;4961660;28;20031;-81
2022/01/06 11:17:32;;;;;;;6.13;3.28;;;;;;;;;;4982045;28;20085;-81
2022/01/06 11:19:58;;;;;;;12.18;4.13;;;;;;;;;;4977629;28;20122;-81
2022/01/06 11:22:25;;;;;;;12.05;3.22;;;;;;;;;;4967831;28;20034;-82
2022/01/06 11:24:59;;;;;;;18.42;4.10;;;;;;;;;;4959857;29;20038;-83
2022/01/06 11:27:32;;;;;;;10.75;3.65;;;;;;;;;;4957410;29;20104;-81
2022/01/06 11:30:07;;;;;;;19.75;3.63;;;;;;;;;;4958976;29;20042;-81
2022/01/06 11:32:33;;;;;;;11.55;3.83;;;;;;;;;;4957529;29;20038;-83
2022/01/06 11:35:02;;;;;;;15.63;3.83;;;;;;;;;;4958744;28;20046;-80
2022/01/06 11:37:39;;;;;;;27.65;4.57;;;;;;;;;;4961013;29;20073;-84
2022/01/06 11:40:05;;;;;;;17.60;3.97;;;;;;;;;;4956035;29;20570;-82
2022/01/06 11:42:31;;;;;;;15.98;4.05;;;;;;;;;;4958983;28;20031;-82
2022/01/06 11:44:58;;;;;;;9.32;4.00;;;;;;;;;;4957681;29;20376;-81
2022/01/06 11:47:31;;;;;;;12.88;3.50;;;;;;;;;;4958659;29;20062;-81
2022/01/06 11:50:10;;;;;;;12.40;3.30;;;;;;;;;;4956148;29;20066;-84
2022/01/06 11:52:36;;;;;;;13.73;3.83;;;;;;;;;;4956807;28;20031;-81
2022/01/06 11:55:04;;;;;;;11.45;2.67;;;;;;;;;;4959632;28;20121;-79
2022/01/06 11:57:35;;;;;;;11.57;2.88;;;;;;;;;;4962354;29;20368;-81
2022/01/06 12:00:21;;;;;;;9.88;2.63;;;;;;;;;;4970589;28;20046;-83
2022/01/06 12:03:00;;;;;;;11.90;2.78;;;;;;;;;;4969449;28;20142;-80
2022/01/06 12:05:27;;;;;;;11.05;3.28;;;;;;;;;;4980261;28;20051;-80
2022/01/06 12:07:53;;;;;;;12.90;2.33;;;;;;;;;;4979638;28;20030;-81
2022/01/06 12:10:20;;;;;;;12.38;3.40;;;;;;;;;;4980958;28;20031;-81
2022/01/06 12:12:48;;;;;;;10.13;2.70;;;;;;;;;;4980121;28;20023;-80
2022/01/06 12:15:16;;;;;;;14.63;3.28;;;;;;;;;;4976559;28;20054;-82
2022/01/06 12:17:47;;;;;;;14.73;2.92;;;;;;;;;;4960491;29;20031;-81
2022/01/06 12:20:19;;;;;;;13.38;3.15;;;;;;;;;;4959013;29;20036;-81
2022/01/06 12:22:45;;;;;;;13.23;2.65;;;;;;;;;;4972780;28;20034;-83
2022/01/06 12:25:11;;;;;;;10.52;2.60;;;;;;;;;;4978299;28;20033;-82
2022/01/06 12:27:48;;;;;;;13.00;2.97;;;;;;;;;;4980725;28;20054;-83
2022/01/06 12:30:14;;;;;;;14.52;2.47;;;;;;;;;;4980993;28;20026;-82
2022/01/06 12:32:40;;;;;;;13.18;2.65;;;;;;;;;;4979698;28;20019;-81
2022/01/06 12:35:07;;;;;;;10.68;2.80;;;;;;;;;;4985192;28;20026;-82
2022/01/06 12:37:33;;;;;;;12.10;2.60;;;;;;;;;;5023145;22;20051;-85
2022/01/06 12:40:00;;;;;;;8.57;2.47;;;;;;;;;;4982301;28;20065;-86
2022/01/06 12:42:26;;;;;;;17.52;2.72;;;;;;;;;;4994442;28;20031;-86
2022/01/06 12:44:53;;;;;;;9.52;2.72;;;;;;;;;;4988558;28;20035;-85
2022/01/06 12:47:19;;;;;;;14.48;3.47;;;;;;;;;;4958423;28;20023;-86
2022/01/06 12:49:47;;;;;;;12.00;3.20;;;;;;;;;;4958644;29;20344;-85
2022/01/06 12:52:13;;;;;;;16.27;3.63;;;;;;;;;;4957515;29;20083;-86
2022/01/06 12:54:43;;;;;;;15.07;3.00;;;;;;;;;;4967216;28;20042;-85
2022/01/06 12:57:11;;;;;;;13.02;2.65;;;;;;;;;;4977983;28;20042;-85
2022/01/06 12:59:39;;;;;;;14.52;3.38;;;;;;;;;;4946436;28;20087;-83
2022/01/06 13:02:13;;;;;;;7.32;2.40;;;;;;;;;;4949756;29;20031;-85
2022/01/06 13:04:40;;;;;;;10.15;3.28;;;;;;;;;;4941150;29;20054;-85
2022/01/06 13:07:07;;;;;;;15.25;3.10;;;;;;;;;;4940298;29;20467;-87
2022/01/06 13:09:34;;;;;;;11.05;2.90;;;;;;;;;;4940313;29;20028;-85
2022/01/06 13:12:05;;;;;;;14.20;2.83;;;;;;;;;;4963176;28;20027;-86
2022/01/06 13:14:46;;;;;;;8.27;2.67;;;;;;;;;;4977575;28;20095;-84
2022/01/06 13:17:19;;;;;;;10.82;3.67;;;;;;;;;;4956501;28;20036;-88
2022/01/06 13:20:01;;;;;;;12.85;2.88;;;;;;;;;;4939105;29;20395;-84
2022/01/06 13:22:36;;;;;;;8.90;2.75;;;;;;;;;;4950311;28;20125;-87
2022/01/06 13:25:09;;;;;;;7.93;2.58;;;;;;;;;;4955854;28;20030;-86
2022/01/06 13:27:37;;;;;;;10.02;2.58;;;;;;;;;;4960000;29;20087;-83
2022/01/06 13:30:03;;;;;;;9.15;2.50;;;;;;;;;;4966792;28;20031;-85
2022/01/06 13:32:29;;;;;;;12.15;2.67;;;;;;;;;;4961269;29;20027;-85
2022/01/06 13:35:15;;;;;;;9.70;2.33;;;;;;;;;;4957899;29;20027;-83
2022/01/06 13:37:42;;;;;;;6.25;2.25;;;;;;;;;;4956266;28;20039;-85
2022/01/06 13:40:09;;;;;;;9.77;2.53;;;;;;;;;;4958801;29;20123;-87
2022/01/06 13:42:37;;;;;;;8.75;2.28;;;;;;;;;;4958367;29;20368;-83
2022/01/06 13:45:22;;;;;;;12.52;1.98;;;;;;;;;;4961752;28;20033;-87
2022/01/06 13:53:16;;;;;;;11.25;3.20;;;;;;;;;;4979378;28;20038;-88
2022/01/06 13:55:42;;;;;;;8.85;2.55;;;;;;;;;;4978173;28;20069;-88
2022/01/06 13:58:08;;;;;;;7.15;2.60;;;;;;;;;;4975081;28;20546;-87
2022/01/06 14:00:34;;;;;;;14.30;2.78;;;;;;;;;;4978404;28;20481;-88
2022/01/06 14:03:01;;;;;;;18.50;2.97;;;;;;;;;;4976866;28;20045;-86
2022/01/06 14:05:27;;;;;;;16.65;2.95;;;;;;;;;;4957633;28;20030;-87
2022/01/06 14:07:53;;;;;;;15.85;2.25;;;;;;;;;;4943648;29;20038;-87
2022/01/06 14:10:19;;;;;;;8.57;2.17;;;;;;;;;;4953915;29;20038;-84
2022/01/06 14:12:46;;;;;;;7.60;1.75;;;;;;;;;;4948878;29;20027;-84
2022/01/06 14:15:12;;;;;;;12.68;2.42;;;;;;;;;;4939777;28;20019;-85
2022/01/06 14:17:38;;;;;;;7.57;2.60;;;;;;;;;;4947726;29;20450;-86
2022/01/06 14:20:04;;;;;;;7.65;2.00;;;;;;;;;;4956491;29;20027;-85
2022/01/06 14:22:30;;;;;;;6.45;1.83;;;;;;;;;;4966828;28;20027;-86
2022/01/06 14:24:56;;;;;;;6.85;1.73;;;;;;;;;;4974784;28;20027;-86
2022/01/06 14:27:22;;;;;;;9.40;2.70;;;;;;;;;;4976969;28;20027;-86
2022/01/06 14:29:48;;;;;;;10.45;2.15;;;;;;;;;;4976108;28;20031;-85
2022/01/06 14:32:14;;;;;;;6.97;1.77;;;;;;;;;;4975870;28;20493;-88
2022/01/06 14:34:40;;;;;;;12.00;1.77;;;;;;;;;;4974178;28;20431;-85
2022/01/06 14:37:06;;;;;;;6.05;1.90;;;;;;;;;;4977012;28;20124;-85
2022/01/06 14:39:33;;;;;;;6.32;2.22;;;;;;;;;;4977619;28;20098;-85
2022/01/06 14:41:59;;;;;;;14.85;2.25;;;;;;;;;;4959994;28;20034;-84
2022/01/06 14:44:34;;;;;;;11.25;2.83;;;;;;;;;;4962519;29;20387;-85
2022/01/06 14:47:00;;;;;;;10.70;2.13;;;;;;;;;;4968530;29;20030;-85
2022/01/06 14:49:26;;;;;;;12.75;2.63;;;;;;;;;;4958568;29;20217;-85
2022/01/06 14:52:45;;;;;;;;;;;;;;;;;;;;;
2022/01/06 14:55:53;;;;;;;9.43;2.53;;;;;;;;;;4950739;28;20895;-85
2022/01/06 15:01:17;;;;;;;11.30;2.40;;;;;;;;;;4942660;29;20152;-84
2022/01/06 15:03:43;;;;;;;12.63;2.47;;;;;;;;;;4943082;29;20048;-84
2022/01/06 15:06:09;;;;;;;9.95;3.03;;;;;;;;;;4941628;29;20035;-85
2022/01/06 15:08:35;;;;;;;13.57;3.85;;;;;;;;;;4939299;29;20024;-83
2022/01/06 15:11:28;;;;;;;15.02;4.30;;;;;;;;;;4944343;29;20029;-84
2022/01/06 15:20:09;;;;;;;11.10;3.90;;;;;;;;;;5307360;23;20141;-85
2022/01/06 15:22:35;;;;;;;9.68;3.80;;;;;;;;;;5017686;28;20026;-85
2022/01/06 15:25:01;;;;;;;12.02;3.65;;;;;;;;;;5019951;28;20462;-85
2022/01/06 15:27:28;;;;;;;12.90;3.60;;;;;;;;;;5016919;28;20026;-85
2022/01/06 15:29:54;;;;;;;7.07;3.65;;;;;;;;;;5025031;28;20009;-85
2022/01/06 15:32:29;;;;;;;20.27;4.10;;;;;;;;;;5035411;28;20014;-84
2022/01/06 15:34:55;;;;;;;10.55;3.88;;;;;;;;;;5037019;28;20017;-84
2022/01/06 15:37:22;;;;;;;9.75;3.90;;;;;;;;;;5034128;28;20026;-84
2022/01/06 15:40:10;;;;;;;13.88;3.88;;;;;;;;;;5017109;28;20026;-85
2022/01/06 15:42:36;;;;;;;6.82;3.15;;;;;;;;;;5007902;28;20049;-84
2022/01/06 15:48:28;;;;;;;13.10;4.13;;;;;;;;;;4939495;29;20031;-84
2022/01/06 15:50:54;;;;;;;16.90;3.88;;;;;;;;;;4946694;29;20027;-84
2022/01/06 15:53:48;;;;;;;;;;;;;;;;;;;;;
2022/01/06 15:56:14;;;;;;;12.30;3.78;;;;;;;;;;4984914;28;20211;-85
2022/01/06 15:58:41;;;;;;;15.80;4.07;;;;;;;;;;4987216;28;20030;-84
2022/01/06 16:12:15;;;;;;;21.13;5.90;;;;;;;;;;4981816;28;20939;-83
2022/01/06 16:14:50;;;;;;;14.48;5.65;;;;;;;;;;4979306;28;20027;-84
2022/01/06 16:17:16;;;;;;;14.02;5.75;;;;;;;;;;4989792;28;20042;-84
2022/01/06 16:19:55;;;;;;;11.73;5.43;;;;;;;;;;4995857;28;20083;-84